Terminal Aerodrome Forecast
Issued by NWS Twin Cities, MN

Home | Current Version | Previous Version | Graphics & Text | Print | Product List | Glossary Off
Versions: 1 2 3 4 5 6 7 8 9 10 11 12 13 14 15 16

516
FTUS43 KMPX 041139
TAFSTC
TAF
KSTC 041139Z 0412/0512 16008KT 4SM -SN BR OVC005
     FM041600 19009KT P6SM OVC009
     FM042100 25007KT P6SM OVC018
     FM050000 24006KT P6SM BKN030
     FM050300 22007KT P6SM SCT030 OVC060
     FM050900 17006KT P6SM BKN040=

USA.gov is the U.S. government's official web portal to all federal, state and local government web resources and services.